sensor_id;sensor_type;location;lat;lon;timestamp;P1;durP1;ratioP1;P2;durP2;ratioP2
5977;SDS011;3015;51.390;12.256;2022-10-16T00:01:10;2.40;;;2.30;;
5977;SDS011;3015;51.390;12.256;2022-10-16T00:03:40;2.60;;;2.50;;
5977;SDS011;3015;51.390;12.256;2022-10-16T00:06:07;2.70;;;2.50;;
5977;SDS011;3015;51.390;12.256;2022-10-16T00:08:34;2.80;;;2.60;;
5977;SDS011;3015;51.390;12.256;2022-10-16T00:11:10;2.83;;;2.40;;
5977;SDS011;3015;51.390;12.256;2022-10-16T00:13:38;2.67;;;2.57;;
5977;SDS011;3015;51.390;12.256;2022-10-16T00:16:06;2.50;;;2.40;;
5977;SDS011;3015;51.390;12.256;2022-10-16T00:18:32;2.93;;;2.63;;
5977;SDS011;3015;51.390;12.256;2022-10-16T00:21:05;2.87;;;2.53;;
5977;SDS011;3015;51.390;12.256;2022-10-16T00:23:32;2.43;;;2.33;;
5977;SDS011;3015;51.390;12.256;2022-10-16T00:25:59;2.43;;;2.17;;
5977;SDS011;3015;51.390;12.256;2022-10-16T00:28:26;4.80;;;1.97;;
5977;SDS011;3015;51.390;12.256;2022-10-16T00:30:52;2.10;;;2.00;;
5977;SDS011;3015;51.390;12.256;2022-10-16T00:33:18;2.20;;;2.10;;
5977;SDS011;3015;51.390;12.256;2022-10-16T00:35:45;2.47;;;2.27;;
5977;SDS011;3015;51.390;12.256;2022-10-16T00:38:11;2.83;;;2.73;;
5977;SDS011;3015;51.390;12.256;2022-10-16T00:40:37;3.20;;;3.00;;
5977;SDS011;3015;51.390;12.256;2022-10-16T00:43:04;4.73;;;2.70;;
5977;SDS011;3015;51.390;12.256;2022-10-16T00:45:53;2.63;;;2.53;;
5977;SDS011;3015;51.390;12.256;2022-10-16T00:48:18;2.10;;;2.00;;
5977;SDS011;3015;51.390;12.256;2022-10-16T00:50:44;1.80;;;1.70;;
5977;SDS011;3015;51.390;12.256;2022-10-16T00:53:10;2.13;;;2.00;;
5977;SDS011;3015;51.390;12.256;2022-10-16T00:55:36;1.93;;;1.70;;
5977;SDS011;3015;51.390;12.256;2022-10-16T00:58:01;1.60;;;1.60;;
5977;SDS011;3015;51.390;12.256;2022-10-16T01:00:27;1.87;;;1.77;;
5977;SDS011;3015;51.390;12.256;2022-10-16T01:02:57;1.57;;;1.57;;
5977;SDS011;3015;51.390;12.256;2022-10-16T01:05:33;1.80;;;1.70;;
5977;SDS011;3015;51.390;12.256;2022-10-16T01:08:15;2.70;;;1.80;;
5977;SDS011;3015;51.390;12.256;2022-10-16T01:10:55;2.93;;;1.90;;
5977;SDS011;3015;51.390;12.256;2022-10-16T01:13:25;2.10;;;2.00;;
5977;SDS011;3015;51.390;12.256;2022-10-16T01:21:23;2.03;;;1.93;;
5977;SDS011;3015;51.390;12.256;2022-10-16T01:32:00;1.90;;;1.80;;
5977;SDS011;3015;51.390;12.256;2022-10-16T01:34:38;2.27;;;2.17;;
5977;SDS011;3015;51.390;12.256;2022-10-16T01:37:12;2.00;;;1.90;;
5977;SDS011;3015;51.390;12.256;2022-10-16T01:39:42;1.83;;;1.73;;
5977;SDS011;3015;51.390;12.256;2022-10-16T01:42:13;2.03;;;1.93;;
5977;SDS011;3015;51.390;12.256;2022-10-16T01:44:43;1.90;;;1.80;;
5977;SDS011;3015;51.390;12.256;2022-10-16T01:47:12;1.80;;;1.70;;
5977;SDS011;3015;51.390;12.256;2022-10-16T01:49:39;2.07;;;1.97;;
5977;SDS011;3015;51.390;12.256;2022-10-16T01:52:12;2.00;;;1.90;;
5977;SDS011;3015;51.390;12.256;2022-10-16T01:54:42;2.07;;;1.97;;
5977;SDS011;3015;51.390;12.256;2022-10-16T01:57:11;1.90;;;1.80;;
5977;SDS011;3015;51.390;12.256;2022-10-16T01:59:41;2.17;;;1.90;;
5977;SDS011;3015;51.390;12.256;2022-10-16T02:02:10;2.13;;;2.03;;
5977;SDS011;3015;51.390;12.256;2022-10-16T02:04:40;2.17;;;2.07;;
5977;SDS011;3015;51.390;12.256;2022-10-16T02:07:09;2.10;;;2.00;;
5977;SDS011;3015;51.390;12.256;2022-10-16T02:09:35;2.00;;;1.90;;
5977;SDS011;3015;51.390;12.256;2022-10-16T02:12:44;2.30;;;2.20;;
5977;SDS011;3015;51.390;12.256;2022-10-16T02:14:52;2.70;;;2.13;;
5977;SDS011;3015;51.390;12.256;2022-10-16T02:17:18;2.17;;;2.07;;
5977;SDS011;3015;51.390;12.256;2022-10-16T02:19:45;1.97;;;1.87;;
5977;SDS011;3015;51.390;12.256;2022-10-16T02:22:18;2.40;;;2.20;;
5977;SDS011;3015;51.390;12.256;2022-10-16T02:25:17;2.60;;;2.50;;
5977;SDS011;3015;51.390;12.256;2022-10-16T02:27:52;2.73;;;2.57;;
5977;SDS011;3015;51.390;12.256;2022-10-16T02:33:20;2.20;;;1.97;;
5977;SDS011;3015;51.390;12.256;2022-10-16T02:35:48;1.87;;;1.77;;
5977;SDS011;3015;51.390;12.256;2022-10-16T02:38:16;2.10;;;2.00;;
5977;SDS011;3015;51.390;12.256;2022-10-16T02:40:42;2.10;;;2.00;;
5977;SDS011;3015;51.390;12.256;2022-10-16T02:43:09;2.13;;;2.03;;
5977;SDS011;3015;51.390;12.256;2022-10-16T02:45:35;2.43;;;2.33;;
5977;SDS011;3015;51.390;12.256;2022-10-16T02:48:00;2.63;;;2.50;;
5977;SDS011;3015;51.390;12.256;2022-10-16T02:50:26;2.10;;;2.00;;
5977;SDS011;3015;51.390;12.256;2022-10-16T02:52:52;2.20;;;2.00;;
5977;SDS011;3015;51.390;12.256;2022-10-16T02:55:17;2.30;;;2.20;;
5977;SDS011;3015;51.390;12.256;2022-10-16T02:57:43;2.13;;;2.03;;
5977;SDS011;3015;51.390;12.256;2022-10-16T03:00:09;2.10;;;2.00;;
5977;SDS011;3015;51.390;12.256;2022-10-16T03:02:37;2.40;;;2.30;;
5977;SDS011;3015;51.390;12.256;2022-10-16T03:05:03;2.20;;;2.00;;
5977;SDS011;3015;51.390;12.256;2022-10-16T03:07:29;2.90;;;2.70;;
5977;SDS011;3015;51.390;12.256;2022-10-16T03:09:54;2.47;;;2.30;;
5977;SDS011;3015;51.390;12.256;2022-10-16T03:12:20;3.17;;;2.77;;
5977;SDS011;3015;51.390;12.256;2022-10-16T03:14:46;2.60;;;2.40;;
5977;SDS011;3015;51.390;12.256;2022-10-16T03:17:12;2.50;;;2.30;;
5977;SDS011;3015;51.390;12.256;2022-10-16T03:19:38;2.63;;;2.43;;
5977;SDS011;3015;51.390;12.256;2022-10-16T03:22:04;2.23;;;2.13;;
5977;SDS011;3015;51.390;12.256;2022-10-16T03:24:30;2.00;;;1.90;;
5977;SDS011;3015;51.390;12.256;2022-10-16T03:26:55;2.30;;;2.20;;
5977;SDS011;3015;51.390;12.256;2022-10-16T03:29:21;2.40;;;2.30;;
5977;SDS011;3015;51.390;12.256;2022-10-16T03:31:46;2.87;;;2.60;;
5977;SDS011;3015;51.390;12.256;2022-10-16T03:34:14;2.67;;;2.47;;
5977;SDS011;3015;51.390;12.256;2022-10-16T03:36:40;2.20;;;2.10;;
5977;SDS011;3015;51.390;12.256;2022-10-16T03:39:05;2.50;;;2.40;;
5977;SDS011;3015;51.390;12.256;2022-10-16T03:41:31;2.77;;;2.53;;
5977;SDS011;3015;51.390;12.256;2022-10-16T03:43:56;2.07;;;1.97;;
5977;SDS011;3015;51.390;12.256;2022-10-16T03:46:22;2.53;;;2.40;;
5977;SDS011;3015;51.390;12.256;2022-10-16T03:48:47;2.20;;;2.10;;
5977;SDS011;3015;51.390;12.256;2022-10-16T03:51:13;2.63;;;2.53;;
5977;SDS011;3015;51.390;12.256;2022-10-16T03:53:39;2.30;;;2.20;;
5977;SDS011;3015;51.390;12.256;2022-10-16T03:56:05;2.00;;;1.90;;
5977;SDS011;3015;51.390;12.256;2022-10-16T03:58:30;2.43;;;2.33;;
5977;SDS011;3015;51.390;12.256;2022-10-16T04:00:56;3.07;;;2.13;;
5977;SDS011;3015;51.390;12.256;2022-10-16T04:03:22;3.00;;;2.60;;
5977;SDS011;3015;51.390;12.256;2022-10-16T04:05:48;2.70;;;2.50;;
5977;SDS011;3015;51.390;12.256;2022-10-16T04:08:14;2.83;;;2.57;;
5977;SDS011;3015;51.390;12.256;2022-10-16T04:10:42;2.97;;;2.77;;
5977;SDS011;3015;51.390;12.256;2022-10-16T04:13:08;2.97;;;2.40;;
5977;SDS011;3015;51.390;12.256;2022-10-16T04:15:34;2.93;;;2.73;;
5977;SDS011;3015;51.390;12.256;2022-10-16T04:17:59;2.40;;;2.27;;
5977;SDS011;3015;51.390;12.256;2022-10-16T04:20:25;2.70;;;2.53;;
5977;SDS011;3015;51.390;12.256;2022-10-16T04:22:51;3.10;;;2.90;;
5977;SDS011;3015;51.390;12.256;2022-10-16T04:25:16;3.10;;;3.00;;
5977;SDS011;3015;51.390;12.256;2022-10-16T04:27:42;2.93;;;2.83;;
5977;SDS011;3015;51.390;12.256;2022-10-16T04:30:07;2.87;;;2.70;;
5977;SDS011;3015;51.390;12.256;2022-10-16T04:32:33;3.37;;;3.07;;
5977;SDS011;3015;51.390;12.256;2022-10-16T04:34:59;3.40;;;3.20;;
5977;SDS011;3015;51.390;12.256;2022-10-16T04:37:25;2.70;;;2.50;;
5977;SDS011;3015;51.390;12.256;2022-10-16T04:39:52;2.40;;;2.30;;
5977;SDS011;3015;51.390;12.256;2022-10-16T04:42:18;2.93;;;2.77;;
5977;SDS011;3015;51.390;12.256;2022-10-16T04:44:44;2.97;;;2.77;;
5977;SDS011;3015;51.390;12.256;2022-10-16T04:47:09;2.90;;;2.70;;
5977;SDS011;3015;51.390;12.256;2022-10-16T04:49:35;2.50;;;2.40;;
5977;SDS011;3015;51.390;12.256;2022-10-16T04:52:01;2.80;;;2.60;;
5977;SDS011;3015;51.390;12.256;2022-10-16T04:54:26;2.90;;;2.77;;
5977;SDS011;3015;51.390;12.256;2022-10-16T04:56:52;2.83;;;2.70;;
5977;SDS011;3015;51.390;12.256;2022-10-16T04:59:18;3.33;;;2.87;;
5977;SDS011;3015;51.390;12.256;2022-10-16T05:01:45;2.95;;;2.60;;
5977;SDS011;3015;51.390;12.256;2022-10-16T05:04:10;2.87;;;2.67;;
5977;SDS011;3015;51.390;12.256;2022-10-16T05:06:36;2.40;;;2.27;;
5977;SDS011;3015;51.390;12.256;2022-10-16T05:09:03;2.33;;;2.13;;
5977;SDS011;3015;51.390;12.256;2022-10-16T05:11:30;2.45;;;2.25;;
5977;SDS011;3015;51.390;12.256;2022-10-16T05:13:55;2.70;;;2.50;;
5977;SDS011;3015;51.390;12.256;2022-10-16T05:16:21;2.53;;;2.43;;
5977;SDS011;3015;51.390;12.256;2022-10-16T05:18:47;2.53;;;2.43;;
5977;SDS011;3015;51.390;12.256;2022-10-16T05:21:12;3.30;;;3.10;;
5977;SDS011;3015;51.390;12.256;2022-10-16T05:23:38;2.67;;;2.50;;
5977;SDS011;3015;51.390;12.256;2022-10-16T05:26:04;3.93;;;3.27;;
5977;SDS011;3015;51.390;12.256;2022-10-16T05:28:29;4.50;;;3.37;;
5977;SDS011;3015;51.390;12.256;2022-10-16T05:30:56;3.00;;;2.90;;
5977;SDS011;3015;51.390;12.256;2022-10-16T05:33:22;3.37;;;3.17;;
5977;SDS011;3015;51.390;12.256;2022-10-16T05:35:50;4.03;;;3.73;;
5977;SDS011;3015;51.390;12.256;2022-10-16T05:38:16;3.20;;;3.00;;
5977;SDS011;3015;51.390;12.256;2022-10-16T05:40:42;3.13;;;3.03;;
5977;SDS011;3015;51.390;12.256;2022-10-16T05:43:08;3.30;;;3.10;;
5977;SDS011;3015;51.390;12.256;2022-10-16T05:45:34;3.13;;;2.93;;
5977;SDS011;3015;51.390;12.256;2022-10-16T05:47:59;3.47;;;3.27;;
5977;SDS011;3015;51.390;12.256;2022-10-16T05:50:26;3.53;;;3.23;;
5977;SDS011;3015;51.390;12.256;2022-10-16T05:52:52;3.22;;;3.05;;
5977;SDS011;3015;51.390;12.256;2022-10-16T05:55:17;3.60;;;3.40;;
5977;SDS011;3015;51.390;12.256;2022-10-16T05:57:43;3.30;;;3.10;;
5977;SDS011;3015;51.390;12.256;2022-10-16T06:00:09;3.67;;;3.37;;
5977;SDS011;3015;51.390;12.256;2022-10-16T06:02:35;2.75;;;2.65;;
5977;SDS011;3015;51.390;12.256;2022-10-16T06:05:01;3.53;;;3.33;;
5977;SDS011;3015;51.390;12.256;2022-10-16T06:07:26;3.73;;;3.43;;
5977;SDS011;3015;51.390;12.256;2022-10-16T06:09:52;3.40;;;3.20;;
5977;SDS011;3015;51.390;12.256;2022-10-16T06:12:18;3.72;;;3.45;;
5977;SDS011;3015;51.390;12.256;2022-10-16T06:14:45;10.02;;;3.72;;
5977;SDS011;3015;51.390;12.256;2022-10-16T06:17:12;3.50;;;3.30;;
5977;SDS011;3015;51.390;12.256;2022-10-16T06:19:39;3.70;;;3.50;;
5977;SDS011;3015;51.390;12.256;2022-10-16T06:22:04;3.73;;;3.43;;
5977;SDS011;3015;51.390;12.256;2022-10-16T06:24:31;3.90;;;3.60;;
5977;SDS011;3015;51.390;12.256;2022-10-16T06:26:56;2.73;;;2.63;;
5977;SDS011;3015;51.390;12.256;2022-10-16T06:29:22;3.00;;;2.90;;
5977;SDS011;3015;51.390;12.256;2022-10-16T06:31:47;3.10;;;3.00;;
5977;SDS011;3015;51.390;12.256;2022-10-16T06:34:13;4.03;;;3.03;;
5977;SDS011;3015;51.390;12.256;2022-10-16T06:36:39;3.80;;;3.60;;
5977;SDS011;3015;51.390;12.256;2022-10-16T06:39:05;3.20;;;3.10;;
5977;SDS011;3015;51.390;12.256;2022-10-16T06:41:32;3.27;;;3.10;;
5977;SDS011;3015;51.390;12.256;2022-10-16T06:43:58;4.03;;;3.73;;
5977;SDS011;3015;51.390;12.256;2022-10-16T06:46:24;4.13;;;3.90;;
5977;SDS011;3015;51.390;12.256;2022-10-16T06:48:51;3.47;;;3.27;;
5977;SDS011;3015;51.390;12.256;2022-10-16T06:51:18;3.17;;;2.97;;
5977;SDS011;3015;51.390;12.256;2022-10-16T06:53:46;3.10;;;3.00;;
5977;SDS011;3015;51.390;12.256;2022-10-16T06:56:24;2.90;;;2.70;;
5977;SDS011;3015;51.390;12.256;2022-10-16T06:58:50;3.10;;;2.90;;
5977;SDS011;3015;51.390;12.256;2022-10-16T07:01:18;3.03;;;2.83;;
5977;SDS011;3015;51.390;12.256;2022-10-16T07:03:45;3.77;;;3.57;;
5977;SDS011;3015;51.390;12.256;2022-10-16T07:06:12;3.03;;;2.93;;
5977;SDS011;3015;51.390;12.256;2022-10-16T07:08:40;3.80;;;3.50;;
5977;SDS011;3015;51.390;12.256;2022-10-16T07:11:10;3.80;;;3.60;;
5977;SDS011;3015;51.390;12.256;2022-10-16T07:13:42;3.57;;;3.37;;
5977;SDS011;3015;51.390;12.256;2022-10-16T07:18:38;3.90;;;3.70;;
5977;SDS011;3015;51.390;12.256;2022-10-16T07:23:41;4.13;;;3.83;;
5977;SDS011;3015;51.390;12.256;2022-10-16T07:26:07;3.30;;;3.10;;
5977;SDS011;3015;51.390;12.256;2022-10-16T07:28:33;3.43;;;3.33;;
5977;SDS011;3015;51.390;12.256;2022-10-16T07:31:00;3.43;;;3.23;;
5977;SDS011;3015;51.390;12.256;2022-10-16T07:33:27;3.90;;;3.70;;
5977;SDS011;3015;51.390;12.256;2022-10-16T07:35:53;6.40;;;5.80;;
5977;SDS011;3015;51.390;12.256;2022-10-16T07:38:19;6.73;;;6.33;;
5977;SDS011;3015;51.390;12.256;2022-10-16T07:40:46;5.80;;;5.50;;
5977;SDS011;3015;51.390;12.256;2022-10-16T07:43:12;3.60;;;3.40;;
5977;SDS011;3015;51.390;12.256;2022-10-16T07:45:45;3.70;;;3.50;;
5977;SDS011;3015;51.390;12.256;2022-10-16T07:48:12;3.17;;;3.03;;
5977;SDS011;3015;51.390;12.256;2022-10-16T07:50:38;3.13;;;3.03;;
5977;SDS011;3015;51.390;12.256;2022-10-16T07:53:03;3.20;;;3.07;;
5977;SDS011;3015;51.390;12.256;2022-10-16T07:55:29;2.93;;;2.73;;
5977;SDS011;3015;51.390;12.256;2022-10-16T07:57:54;3.53;;;3.30;;
5977;SDS011;3015;51.390;12.256;2022-10-16T08:00:20;2.93;;;2.83;;
5977;SDS011;3015;51.390;12.256;2022-10-16T08:02:46;2.70;;;2.60;;
5977;SDS011;3015;51.390;12.256;2022-10-16T08:05:11;2.60;;;2.40;;
5977;SDS011;3015;51.390;12.256;2022-10-16T08:07:37;2.90;;;2.60;;
5977;SDS011;3015;51.390;12.256;2022-10-16T08:10:03;2.30;;;2.10;;
5977;SDS011;3015;51.390;12.256;2022-10-16T08:12:29;1.97;;;1.87;;
5977;SDS011;3015;51.390;12.256;2022-10-16T08:14:55;2.60;;;2.07;;
5977;SDS011;3015;51.390;12.256;2022-10-16T08:17:20;2.10;;;2.00;;
5977;SDS011;3015;51.390;12.256;2022-10-16T08:19:46;1.73;;;1.63;;
5977;SDS011;3015;51.390;12.256;2022-10-16T08:22:12;2.10;;;2.00;;
5977;SDS011;3015;51.390;12.256;2022-10-16T08:24:39;2.40;;;2.20;;
5977;SDS011;3015;51.390;12.256;2022-10-16T08:27:05;1.83;;;1.70;;
5977;SDS011;3015;51.390;12.256;2022-10-16T08:29:31;1.70;;;1.60;;
5977;SDS011;3015;51.390;12.256;2022-10-16T08:31:56;1.80;;;1.70;;
5977;SDS011;3015;51.390;12.256;2022-10-16T08:34:22;1.83;;;1.73;;
5977;SDS011;3015;51.390;12.256;2022-10-16T08:36:47;2.03;;;1.93;;
5977;SDS011;3015;51.390;12.256;2022-10-16T08:39:13;1.60;;;1.50;;
5977;SDS011;3015;51.390;12.256;2022-10-16T08:44:19;1.90;;;1.80;;
5977;SDS011;3015;51.390;12.256;2022-10-16T08:49:58;1.90;;;1.80;;
5977;SDS011;3015;51.390;12.256;2022-10-16T08:52:29;2.10;;;1.97;;
5977;SDS011;3015;51.390;12.256;2022-10-16T08:54:57;2.03;;;1.83;;
5977;SDS011;3015;51.390;12.256;2022-10-16T08:57:24;1.70;;;1.60;;
5977;SDS011;3015;51.390;12.256;2022-10-16T08:59:52;1.70;;;1.60;;
5977;SDS011;3015;51.390;12.256;2022-10-16T09:02:32;1.73;;;1.63;;
5977;SDS011;3015;51.390;12.256;2022-10-16T09:05:17;1.83;;;1.73;;
5977;SDS011;3015;51.390;12.256;2022-10-16T09:10:44;1.33;;;1.33;;
5977;SDS011;3015;51.390;12.256;2022-10-16T09:21:25;1.20;;;1.20;;
5977;SDS011;3015;51.390;12.256;2022-10-16T09:23:58;1.27;;;1.17;;
5977;SDS011;3015;51.390;12.256;2022-10-16T09:26:35;2.00;;;1.20;;
5977;SDS011;3015;51.390;12.256;2022-10-16T09:29:00;1.17;;;1.17;;
5977;SDS011;3015;51.390;12.256;2022-10-16T09:31:28;1.03;;;1.03;;
5977;SDS011;3015;51.390;12.256;2022-10-16T09:33:55;1.60;;;1.50;;
5977;SDS011;3015;51.390;12.256;2022-10-16T09:36:39;1.40;;;1.30;;
5977;SDS011;3015;51.390;12.256;2022-10-16T09:39:09;1.57;;;1.47;;
5977;SDS011;3015;51.390;12.256;2022-10-16T09:41:37;1.27;;;1.27;;
5977;SDS011;3015;51.390;12.256;2022-10-16T09:44:06;1.50;;;1.40;;
5977;SDS011;3015;51.390;12.256;2022-10-16T09:46:44;1.30;;;1.20;;
5977;SDS011;3015;51.390;12.256;2022-10-16T09:49:19;1.20;;;1.20;;
5977;SDS011;3015;51.390;12.256;2022-10-16T09:51:50;1.63;;;1.30;;
5977;SDS011;3015;51.390;12.256;2022-10-16T09:54:27;1.50;;;1.40;;
5977;SDS011;3015;51.390;12.256;2022-10-16T09:56:52;1.50;;;1.40;;
5977;SDS011;3015;51.390;12.256;2022-10-16T09:59:31;1.30;;;1.30;;
5977;SDS011;3015;51.390;12.256;2022-10-16T10:02:00;1.50;;;1.40;;
5977;SDS011;3015;51.390;12.256;2022-10-16T10:04:37;1.43;;;1.20;;
5977;SDS011;3015;51.390;12.256;2022-10-16T10:07:05;1.60;;;1.50;;
5977;SDS011;3015;51.390;12.256;2022-10-16T10:09:42;1.70;;;1.60;;
5977;SDS011;3015;51.390;12.256;2022-10-16T10:12:21;1.23;;;1.23;;
5977;SDS011;3015;51.390;12.256;2022-10-16T10:14:52;1.30;;;1.30;;
5977;SDS011;3015;51.390;12.256;2022-10-16T10:17:24;1.70;;;1.60;;
5977;SDS011;3015;51.390;12.256;2022-10-16T10:25:00;1.90;;;1.80;;
5977;SDS011;3015;51.390;12.256;2022-10-16T10:27:36;1.37;;;1.37;;
5977;SDS011;3015;51.390;12.256;2022-10-16T10:38:35;1.67;;;1.57;;
5977;SDS011;3015;51.390;12.256;2022-10-16T10:55:03;1.90;;;1.40;;
5977;SDS011;3015;51.390;12.256;2022-10-16T11:00:31;1.30;;;1.30;;
5977;SDS011;3015;51.390;12.256;2022-10-16T11:05:49;1.87;;;1.77;;
5977;SDS011;3015;51.390;12.256;2022-10-16T11:08:26;1.43;;;1.40;;
5977;SDS011;3015;51.390;12.256;2022-10-16T11:11:09;1.40;;;1.30;;
5977;SDS011;3015;51.390;12.256;2022-10-16T11:16:28;2.23;;;2.13;;
5977;SDS011;3015;51.390;12.256;2022-10-16T11:18:59;1.77;;;1.70;;
5977;SDS011;3015;51.390;12.256;2022-10-16T11:21:51;1.60;;;1.50;;
5977;SDS011;3015;51.390;12.256;2022-10-16T11:24:26;1.63;;;1.57;;
5977;SDS011;3015;51.390;12.256;2022-10-16T11:27:07;2.13;;;1.80;;
5977;SDS011;3015;51.390;12.256;2022-10-16T11:29:39;1.60;;;1.50;;
5977;SDS011;3015;51.390;12.256;2022-10-16T11:32:22;1.60;;;1.50;;
5977;SDS011;3015;51.390;12.256;2022-10-16T11:34:54;1.70;;;1.70;;
5977;SDS011;3015;51.390;12.256;2022-10-16T11:37:31;1.70;;;1.60;;
5977;SDS011;3015;51.390;12.256;2022-10-16T11:40:17;1.80;;;1.70;;
5977;SDS011;3015;51.390;12.256;2022-10-16T11:43:04;1.33;;;1.33;;
5977;SDS011;3015;51.390;12.256;2022-10-16T11:45:45;1.70;;;1.60;;
5977;SDS011;3015;51.390;12.256;2022-10-16T11:48:27;1.93;;;1.83;;
5977;SDS011;3015;51.390;12.256;2022-10-16T11:56:26;1.30;;;1.30;;
5977;SDS011;3015;51.390;12.256;2022-10-16T11:58:56;1.60;;;1.50;;
5977;SDS011;3015;51.390;12.256;2022-10-16T12:07:02;1.37;;;1.30;;
5977;SDS011;3015;51.390;12.256;2022-10-16T12:09:29;1.77;;;1.67;;
5977;SDS011;3015;51.390;12.256;2022-10-16T12:11:57;1.77;;;1.67;;
5977;SDS011;3015;51.390;12.256;2022-10-16T12:17:04;2.87;;;2.67;;
5977;SDS011;3015;51.390;12.256;2022-10-16T12:19:58;2.90;;;2.70;;
5977;SDS011;3015;51.390;12.256;2022-10-16T12:22:26;3.10;;;2.80;;
5977;SDS011;3015;51.390;12.256;2022-10-16T12:24:55;3.07;;;2.77;;
5977;SDS011;3015;51.390;12.256;2022-10-16T12:27:24;2.40;;;1.97;;
5977;SDS011;3015;51.390;12.256;2022-10-16T12:29:56;1.50;;;1.40;;
5977;SDS011;3015;51.390;12.256;2022-10-16T12:32:28;1.30;;;1.30;;
5977;SDS011;3015;51.390;12.256;2022-10-16T12:34:59;1.47;;;1.47;;
5977;SDS011;3015;51.390;12.256;2022-10-16T12:37:27;1.23;;;1.23;;
5977;SDS011;3015;51.390;12.256;2022-10-16T12:39:59;1.60;;;1.50;;
5977;SDS011;3015;51.390;12.256;2022-10-16T12:42:38;1.67;;;1.30;;
5977;SDS011;3015;51.390;12.256;2022-10-16T12:47:51;1.60;;;1.50;;
5977;SDS011;3015;51.390;12.256;2022-10-16T12:53:15;1.70;;;1.60;;
5977;SDS011;3015;51.390;12.256;2022-10-16T12:58:47;1.60;;;1.50;;
5977;SDS011;3015;51.390;12.256;2022-10-16T13:01:29;1.47;;;1.47;;
5977;SDS011;3015;51.390;12.256;2022-10-16T13:04:22;1.20;;;1.20;;
5977;SDS011;3015;51.390;12.256;2022-10-16T13:09:40;1.43;;;1.33;;
5977;SDS011;3015;51.390;12.256;2022-10-16T13:12:27;1.70;;;1.60;;
5977;SDS011;3015;51.390;12.256;2022-10-16T13:15:17;1.30;;;1.30;;
5977;SDS011;3015;51.390;12.256;2022-10-16T13:18:16;2.43;;;1.80;;
5977;SDS011;3015;51.390;12.256;2022-10-16T13:23:35;1.30;;;1.20;;
5977;SDS011;3015;51.390;12.256;2022-10-16T13:28:48;1.30;;;1.30;;
5977;SDS011;3015;51.390;12.256;2022-10-16T13:31:21;1.87;;;1.40;;
5977;SDS011;3015;51.390;12.256;2022-10-16T13:33:50;1.57;;;1.50;;
5977;SDS011;3015;51.390;12.256;2022-10-16T13:36:24;1.40;;;1.30;;
5977;SDS011;3015;51.390;12.256;2022-10-16T13:39:13;1.60;;;1.50;;
5977;SDS011;3015;51.390;12.256;2022-10-16T13:41:45;1.20;;;1.20;;
5977;SDS011;3015;51.390;12.256;2022-10-16T13:44:22;1.40;;;1.40;;
5977;SDS011;3015;51.390;12.256;2022-10-16T13:46:58;2.03;;;1.63;;
5977;SDS011;3015;51.390;12.256;2022-10-16T13:49:25;1.77;;;1.67;;
5977;SDS011;3015;51.390;12.256;2022-10-16T13:51:54;1.40;;;1.40;;
5977;SDS011;3015;51.390;12.256;2022-10-16T13:54:22;1.67;;;1.57;;
5977;SDS011;3015;51.390;12.256;2022-10-16T13:56:48;2.03;;;1.70;;
5977;SDS011;3015;51.390;12.256;2022-10-16T13:59:33;1.70;;;1.60;;
5977;SDS011;3015;51.390;12.256;2022-10-16T14:02:00;2.30;;;2.20;;
5977;SDS011;3015;51.390;12.256;2022-10-16T14:04:33;2.80;;;1.80;;
5977;SDS011;3015;51.390;12.256;2022-10-16T14:07:03;1.63;;;1.63;;
5977;SDS011;3015;51.390;12.256;2022-10-16T14:09:30;1.87;;;1.77;;
5977;SDS011;3015;51.390;12.256;2022-10-16T14:11:57;1.40;;;1.30;;
5977;SDS011;3015;51.390;12.256;2022-10-16T14:14:27;1.90;;;1.80;;
5977;SDS011;3015;51.390;12.256;2022-10-16T14:16:59;1.80;;;1.70;;
5977;SDS011;3015;51.390;12.256;2022-10-16T14:19:25;2.90;;;1.93;;
5977;SDS011;3015;51.390;12.256;2022-10-16T14:21:53;1.77;;;1.67;;
5977;SDS011;3015;51.390;12.256;2022-10-16T14:24:26;1.70;;;1.60;;
5977;SDS011;3015;51.390;12.256;2022-10-16T14:26:52;1.40;;;1.30;;
5977;SDS011;3015;51.390;12.256;2022-10-16T14:29:21;1.60;;;1.50;;
5977;SDS011;3015;51.390;12.256;2022-10-16T14:32:21;1.50;;;1.40;;
5977;SDS011;3015;51.390;12.256;2022-10-16T14:34:52;1.67;;;1.57;;
5977;SDS011;3015;51.390;12.256;2022-10-16T14:39:50;1.90;;;1.80;;
5977;SDS011;3015;51.390;12.256;2022-10-16T14:42:17;1.70;;;1.60;;
5977;SDS011;3015;51.390;12.256;2022-10-16T14:44:45;1.97;;;1.60;;
5977;SDS011;3015;51.390;12.256;2022-10-16T14:47:16;1.40;;;1.30;;
5977;SDS011;3015;51.390;12.256;2022-10-16T14:49:49;2.03;;;1.93;;
5977;SDS011;3015;51.390;12.256;2022-10-16T14:52:14;2.23;;;2.13;;
5977;SDS011;3015;51.390;12.256;2022-10-16T14:54:40;3.13;;;3.00;;
5977;SDS011;3015;51.390;12.256;2022-10-16T14:57:13;3.97;;;3.67;;
5977;SDS011;3015;51.390;12.256;2022-10-16T14:59:45;5.67;;;5.17;;
5977;SDS011;3015;51.390;12.256;2022-10-16T15:02:33;2.30;;;2.20;;
5977;SDS011;3015;51.390;12.256;2022-10-16T15:05:07;3.40;;;3.20;;
5977;SDS011;3015;51.390;12.256;2022-10-16T15:07:40;13.73;;;12.20;;
5977;SDS011;3015;51.390;12.256;2022-10-16T15:10:06;7.37;;;6.67;;
5977;SDS011;3015;51.390;12.256;2022-10-16T15:12:32;6.10;;;5.70;;
5977;SDS011;3015;51.390;12.256;2022-10-16T15:14:58;3.37;;;3.17;;
5977;SDS011;3015;51.390;12.256;2022-10-16T15:17:24;4.50;;;3.03;;
5977;SDS011;3015;51.390;12.256;2022-10-16T15:19:49;3.30;;;3.10;;
5977;SDS011;3015;51.390;12.256;2022-10-16T15:22:16;2.57;;;2.37;;
5977;SDS011;3015;51.390;12.256;2022-10-16T15:24:42;4.10;;;3.40;;
5977;SDS011;3015;51.390;12.256;2022-10-16T15:27:08;2.77;;;2.67;;
5977;SDS011;3015;51.390;12.256;2022-10-16T15:29:34;2.90;;;2.70;;
5977;SDS011;3015;51.390;12.256;2022-10-16T15:32:00;3.10;;;2.90;;
5977;SDS011;3015;51.390;12.256;2022-10-16T15:34:26;3.10;;;2.90;;
5977;SDS011;3015;51.390;12.256;2022-10-16T15:36:51;2.70;;;2.60;;
5977;SDS011;3015;51.390;12.256;2022-10-16T15:39:20;2.73;;;2.50;;
5977;SDS011;3015;51.390;12.256;2022-10-16T15:41:47;3.43;;;2.80;;
5977;SDS011;3015;51.390;12.256;2022-10-16T15:44:16;2.77;;;2.67;;
5977;SDS011;3015;51.390;12.256;2022-10-16T15:46:42;3.10;;;3.00;;
5977;SDS011;3015;51.390;12.256;2022-10-16T15:49:07;3.60;;;3.30;;
5977;SDS011;3015;51.390;12.256;2022-10-16T15:51:34;7.10;;;6.50;;
5977;SDS011;3015;51.390;12.256;2022-10-16T15:54:04;6.43;;;5.93;;
5977;SDS011;3015;51.390;12.256;2022-10-16T15:56:29;5.20;;;4.80;;
5977;SDS011;3015;51.390;12.256;2022-10-16T15:58:58;4.47;;;4.17;;
5977;SDS011;3015;51.390;12.256;2022-10-16T16:01:25;5.03;;;4.63;;
5977;SDS011;3015;51.390;12.256;2022-10-16T16:03:54;6.73;;;6.03;;
5977;SDS011;3015;51.390;12.256;2022-10-16T16:06:20;5.80;;;5.40;;
5977;SDS011;3015;51.390;12.256;2022-10-16T16:08:48;5.63;;;5.23;;
5977;SDS011;3015;51.390;12.256;2022-10-16T16:11:15;7.23;;;6.73;;
5977;SDS011;3015;51.390;12.256;2022-10-16T16:13:42;6.00;;;5.60;;
5977;SDS011;3015;51.390;12.256;2022-10-16T16:16:08;7.00;;;6.40;;
5977;SDS011;3015;51.390;12.256;2022-10-16T16:18:35;6.00;;;5.60;;
5977;SDS011;3015;51.390;12.256;2022-10-16T16:21:02;6.20;;;5.83;;
5977;SDS011;3015;51.390;12.256;2022-10-16T16:23:28;6.90;;;6.00;;
5977;SDS011;3015;51.390;12.256;2022-10-16T16:28:35;5.83;;;5.33;;
5977;SDS011;3015;51.390;12.256;2022-10-16T16:31:00;4.63;;;4.33;;
5977;SDS011;3015;51.390;12.256;2022-10-16T16:33:26;4.27;;;3.97;;
5977;SDS011;3015;51.390;12.256;2022-10-16T16:35:55;4.40;;;4.00;;
5977;SDS011;3015;51.390;12.256;2022-10-16T16:38:26;4.20;;;3.80;;
5977;SDS011;3015;51.390;12.256;2022-10-16T16:40:52;5.13;;;4.23;;
5977;SDS011;3015;51.390;12.256;2022-10-16T16:43:18;4.40;;;4.03;;
5977;SDS011;3015;51.390;12.256;2022-10-16T16:45:44;4.50;;;4.20;;
5977;SDS011;3015;51.390;12.256;2022-10-16T16:48:10;4.00;;;3.70;;
5977;SDS011;3015;51.390;12.256;2022-10-16T16:50:36;4.10;;;3.80;;
5977;SDS011;3015;51.390;12.256;2022-10-16T16:53:02;4.85;;;4.03;;
5977;SDS011;3015;51.390;12.256;2022-10-16T16:55:28;5.60;;;4.90;;
5977;SDS011;3015;51.390;12.256;2022-10-16T16:57:53;4.73;;;4.43;;
5977;SDS011;3015;51.390;12.256;2022-10-16T17:00:19;4.90;;;4.50;;
5977;SDS011;3015;51.390;12.256;2022-10-16T17:02:47;4.30;;;4.00;;